createdAt,value
2023-04-26T00:00:51.589Z,2.99
2023-04-26T00:10:51.583Z,2.95
2023-04-26T00:20:51.609Z,2.89
2023-04-26T00:30:51.623Z,2.89
2023-04-26T00:40:51.590Z,2.79
2023-04-26T00:50:51.603Z,2.53
2023-04-26T01:00:51.654Z,2.32
2023-04-26T01:10:51.593Z,2.47
2023-04-26T01:20:51.602Z,2.55
2023-04-26T01:30:51.606Z,2.73
2023-04-26T01:40:51.608Z,2.6
2023-04-26T01:50:51.598Z,2.45
2023-04-26T02:00:51.582Z,2.42
2023-04-26T02:10:51.598Z,2.48
2023-04-26T02:20:51.608Z,2.57
2023-04-26T02:30:51.621Z,2.48
2023-04-26T02:40:51.605Z,2.22
2023-04-26T02:50:51.599Z,1.92
2023-04-26T03:00:51.591Z,1.56
2023-04-26T03:10:51.622Z,1.56
2023-04-26T03:20:51.650Z,1.55
2023-04-26T03:30:51.675Z,1.43
2023-04-26T03:40:51.624Z,1.25
2023-04-26T03:50:51.769Z,1.1
2023-04-26T04:00:51.643Z,1.24
2023-04-26T04:10:51.660Z,1.15
2023-04-26T04:20:51.636Z,1.21
2023-04-26T04:30:51.667Z,1.25
2023-04-26T04:40:51.654Z,1.42
2023-04-26T04:50:51.641Z,1.64
2023-04-26T05:00:51.639Z,1.83
2023-04-26T05:10:51.658Z,2.06
2023-04-26T05:20:51.656Z,2.26
2023-04-26T05:30:51.665Z,2.5
2023-04-26T05:40:51.651Z,3.04
2023-04-26T05:50:51.653Z,3.96
2023-04-26T06:00:51.652Z,5.01
2023-04-26T06:10:51.684Z,5.7
2023-04-26T06:20:51.665Z,6.58
2023-04-26T06:30:51.717Z,8.4
2023-04-26T06:40:51.643Z,8.49
2023-04-26T06:50:51.643Z,9.08
2023-04-26T07:00:51.652Z,8.89
2023-04-26T07:10:51.634Z,8.6
2023-04-26T07:20:51.661Z,8.58
2023-04-26T07:30:51.706Z,8.45
2023-04-26T07:40:51.644Z,9.29
2023-04-26T07:50:51.642Z,9.66
2023-04-26T08:00:51.620Z,10.1
2023-04-26T08:10:51.650Z,10.62
2023-04-26T08:20:51.649Z,11.48
2023-04-26T08:30:51.642Z,12.26
2023-04-26T08:40:51.606Z,12.49
2023-04-26T08:50:51.587Z,13.77
2023-04-26T09:00:51.592Z,13.9
2023-04-26T09:10:51.587Z,14.15
2023-04-26T09:20:51.572Z,14.98
2023-04-26T09:30:51.567Z,15.85
2023-04-26T09:40:51.570Z,15.78
2023-04-26T09:50:51.509Z,16.18
2023-04-26T10:00:51.590Z,16.43
2023-04-26T10:10:51.510Z,17.38
2023-04-26T10:20:51.505Z,16.89
2023-04-26T10:30:51.493Z,17.72
2023-04-26T10:40:52.140Z,18
2023-04-26T10:50:51.447Z,17.6
2023-04-26T11:00:51.531Z,18.53
2023-04-26T11:10:51.472Z,18.51
2023-04-26T11:20:51.485Z,19.44
2023-04-26T11:30:51.478Z,19.12
2023-04-26T11:40:51.461Z,19.62
2023-04-26T11:50:51.453Z,18.84
2023-04-26T12:00:51.631Z,17.84
2023-04-26T12:10:51.392Z,17.46
2023-04-26T12:20:51.391Z,18.96
2023-04-26T12:30:51.378Z,19.87
2023-04-26T12:40:51.403Z,20.35
2023-04-26T12:50:51.472Z,19.46
2023-04-26T13:00:51.302Z,19.61
2023-04-26T13:10:51.407Z,20.22
2023-04-26T13:20:51.326Z,19.86
2023-04-26T13:30:51.323Z,20.19
2023-04-26T13:40:51.295Z,19.91
2023-04-26T13:50:51.298Z,18.96
2023-04-26T14:00:51.291Z,17.7
2023-04-26T14:10:51.256Z,17.3
2023-04-26T14:20:51.249Z,17.51
2023-04-26T14:30:51.292Z,17.53
2023-04-26T14:40:51.240Z,17.35
2023-04-26T14:50:51.208Z,16.9
2023-04-26T15:00:51.220Z,16.97
2023-04-26T15:10:51.195Z,17.42
2023-04-26T15:20:51.190Z,17.56
2023-04-26T15:30:51.173Z,17.1
2023-04-26T15:40:51.234Z,18.48
2023-04-26T15:50:51.153Z,17.24
2023-04-26T16:00:51.120Z,18.52
2023-04-26T16:10:51.154Z,18.64
2023-04-26T16:20:51.159Z,18.22
2023-04-26T16:30:51.115Z,17.97
2023-04-26T16:40:58.894Z,16.64
2023-04-26T16:50:51.078Z,15.78
2023-04-26T17:00:51.107Z,15.15
2023-04-26T17:10:51.093Z,14.82
2023-04-26T17:20:51.080Z,14.52
2023-04-26T17:30:51.085Z,14.15
2023-04-26T17:40:51.069Z,13.82
2023-04-26T17:50:51.196Z,13.43
2023-04-26T18:00:51.044Z,13.32
2023-04-26T18:10:51.027Z,13.11
2023-04-26T18:20:51.036Z,12.93
2023-04-26T18:30:51.111Z,12.92
2023-04-26T18:40:51.005Z,12.83
2023-04-26T18:50:51.290Z,12.75
2023-04-26T19:00:50.995Z,12.67
2023-04-26T19:10:51.027Z,12.56
2023-04-26T19:20:51.005Z,12.37
2023-04-26T19:30:51.018Z,12.23
2023-04-26T19:40:50.970Z,12.03
2023-04-26T19:50:50.983Z,11.9
2023-04-26T20:00:51.066Z,11.72
2023-04-26T20:10:50.989Z,11.59
2023-04-26T20:20:50.969Z,11.39
2023-04-26T20:30:50.978Z,11.17
2023-04-26T20:40:50.985Z,10.91
2023-04-26T20:50:50.943Z,10.82
2023-04-26T21:00:50.933Z,10.78
2023-04-26T21:10:50.937Z,10.76
2023-04-26T21:20:50.944Z,10.68
2023-04-26T21:30:50.953Z,10.47
2023-04-26T21:40:50.926Z,10.2
2023-04-26T21:50:50.911Z,9.79
2023-04-26T22:00:50.953Z,9.65
2023-04-26T22:10:50.913Z,9.51
2023-04-26T22:20:50.918Z,9.29
2023-04-26T22:30:50.906Z,9.26
2023-04-26T22:40:50.890Z,9.3
2023-04-26T22:50:50.890Z,9.17
2023-04-26T23:00:50.898Z,9.19
2023-04-26T23:10:50.881Z,9.13
2023-04-26T23:20:50.863Z,8.97
2023-04-26T23:30:50.862Z,8.79
2023-04-26T23:50:50.852Z,8.61
